sensor_id;sensor_type;location;lat;lon;timestamp;pressure;altitude;pressure_sealevel;temperature;humidity
71384;BME280;67558;52.166;5.004;2023-02-14T00:02:20;103598.84;;;6.15;66.98
71384;BME280;67558;52.166;5.004;2023-02-14T00:04:45;103585.56;;;6.15;66.68
71384;BME280;67558;52.166;5.004;2023-02-14T00:07:12;103588.22;;;6.15;67.00
71384;BME280;67558;52.166;5.004;2023-02-14T00:09:41;103583.22;;;6.12;66.55
71384;BME280;67558;52.166;5.004;2023-02-14T00:12:06;103593.84;;;6.12;67.09
71384;BME280;67558;52.166;5.004;2023-02-14T00:14:32;103589.19;;;6.06;66.63
71384;BME280;67558;52.166;5.004;2023-02-14T00:17:15;103595.84;;;6.10;66.41
71384;BME280;67558;52.166;5.004;2023-02-14T00:19:41;103589.19;;;6.06;66.44
71384;BME280;67558;52.166;5.004;2023-02-14T00:22:06;103590.88;;;5.99;66.29
71384;BME280;67558;52.166;5.004;2023-02-14T00:24:31;103577.53;;;5.91;66.57
71384;BME280;67558;52.166;5.004;2023-02-14T00:26:57;103582.19;;;5.89;66.57
71384;BME280;67558;52.166;5.004;2023-02-14T00:29:26;103591.03;;;5.89;66.52
71384;BME280;67558;52.166;5.004;2023-02-14T00:31:52;103577.88;;;5.88;66.47
71384;BME280;67558;52.166;5.004;2023-02-14T00:34:18;103586.84;;;5.87;66.41
71384;BME280;67558;52.166;5.004;2023-02-14T00:36:44;103579.03;;;5.77;66.38
71384;BME280;67558;52.166;5.004;2023-02-14T00:39:12;103571.75;;;5.79;66.43
71384;BME280;67558;52.166;5.004;2023-02-14T00:41:38;103584.84;;;5.81;66.33
71384;BME280;67558;52.166;5.004;2023-02-14T00:44:05;103587.50;;;5.81;66.58
71384;BME280;67558;52.166;5.004;2023-02-14T00:46:31;103585.03;;;5.79;66.59
71384;BME280;67558;52.166;5.004;2023-02-14T00:48:56;103581.72;;;5.77;66.29
71384;BME280;67558;52.166;5.004;2023-02-14T00:51:22;103580.53;;;5.71;66.53
71384;BME280;67558;52.166;5.004;2023-02-14T00:53:48;103574.88;;;5.66;66.71
71384;BME280;67558;52.166;5.004;2023-02-14T00:56:14;103566.25;;;5.64;66.92
71384;BME280;67558;52.166;5.004;2023-02-14T00:58:40;103567.75;;;5.67;66.82
71384;BME280;67558;52.166;5.004;2023-02-14T01:01:06;103569.22;;;5.69;66.82
71384;BME280;67558;52.166;5.004;2023-02-14T01:03:33;103565.41;;;5.72;67.20
71384;BME280;67558;52.166;5.004;2023-02-14T01:05:58;103564.28;;;5.74;66.90
71384;BME280;67558;52.166;5.004;2023-02-14T01:08:25;103564.28;;;5.74;66.76
71384;BME280;67558;52.166;5.004;2023-02-14T01:10:50;103558.63;;;5.78;66.97
71384;BME280;67558;52.166;5.004;2023-02-14T01:13:17;103569.09;;;5.79;66.94
71384;BME280;67558;52.166;5.004;2023-02-14T01:15:50;103558.63;;;5.78;67.14
71384;BME280;67558;52.166;5.004;2023-02-14T01:18:17;103556.63;;;5.80;67.11
71384;BME280;67558;52.166;5.004;2023-02-14T01:20:43;103551.81;;;5.75;66.96
71384;BME280;67558;52.166;5.004;2023-02-14T01:23:08;103551.00;;;5.66;67.00
71384;BME280;67558;52.166;5.004;2023-02-14T01:25:37;103543.34;;;5.63;66.75
71384;BME280;67558;52.166;5.004;2023-02-14T01:28:04;103538.53;;;5.59;66.94
71384;BME280;67558;52.166;5.004;2023-02-14T01:30:29;103542.69;;;5.53;67.11
71384;BME280;67558;52.166;5.004;2023-02-14T01:32:55;103539.66;;;5.48;67.15
71384;BME280;67558;52.166;5.004;2023-02-14T01:35:20;103548.13;;;5.43;67.37
71384;BME280;67558;52.166;5.004;2023-02-14T01:37:46;103542.66;;;5.45;67.17
71384;BME280;67558;52.166;5.004;2023-02-14T01:40:12;103544.31;;;5.46;67.18
71384;BME280;67558;52.166;5.004;2023-02-14T01:42:38;103551.78;;;5.50;67.02
71384;BME280;67558;52.166;5.004;2023-02-14T01:45:06;103548.97;;;5.52;67.08
71384;BME280;67558;52.166;5.004;2023-02-14T01:47:36;103538.50;;;5.50;66.98
71384;BME280;67558;52.166;5.004;2023-02-14T01:50:08;103539.38;;;5.51;67.08
71384;BME280;67558;52.166;5.004;2023-02-14T01:52:43;103538.34;;;5.52;67.24
71384;BME280;67558;52.166;5.004;2023-02-14T01:55:14;103540.50;;;5.48;67.22
71384;BME280;67558;52.166;5.004;2023-02-14T01:58:08;103540.69;;;5.47;67.57
71384;BME280;67558;52.166;5.004;2023-02-14T02:00:35;103544.81;;;5.49;67.24
71384;BME280;67558;52.166;5.004;2023-02-14T02:03:21;103545.16;;;5.54;67.21
71384;BME280;67558;52.166;5.004;2023-02-14T02:05:52;103537.38;;;5.53;67.31
71384;BME280;67558;52.166;5.004;2023-02-14T02:08:19;103550.47;;;5.54;67.32
71384;BME280;67558;52.166;5.004;2023-02-14T02:10:44;103546.34;;;5.60;66.95
71384;BME280;67558;52.166;5.004;2023-02-14T02:13:16;103544.00;;;5.49;67.38
71384;BME280;67558;52.166;5.004;2023-02-14T02:15:57;103534.53;;;5.38;67.38
71384;BME280;67558;52.166;5.004;2023-02-14T02:18:56;103538.13;;;5.29;67.50
71384;BME280;67558;52.166;5.004;2023-02-14T02:24:30;103536.69;;;5.43;66.94
71384;BME280;67558;52.166;5.004;2023-02-14T02:38:38;103537.31;;;5.28;67.77
71384;BME280;67558;52.166;5.004;2023-02-14T02:41:32;103537.00;;;5.40;67.47
71384;BME280;67558;52.166;5.004;2023-02-14T02:46:39;103529.88;;;5.32;67.59
71384;BME280;67558;52.166;5.004;2023-02-14T02:55:26;103526.84;;;5.10;67.30
71384;BME280;67558;52.166;5.004;2023-02-14T02:58:15;103530.16;;;5.12;67.70
71384;BME280;67558;52.166;5.004;2023-02-14T03:00:41;103529.00;;;5.15;67.71
71384;BME280;67558;52.166;5.004;2023-02-14T03:03:07;103528.19;;;5.15;67.95
71384;BME280;67558;52.166;5.004;2023-02-14T03:05:51;103524.66;;;5.14;67.51
71384;BME280;67558;52.166;5.004;2023-02-14T03:08:16;103526.69;;;5.12;67.58
71384;BME280;67558;52.166;5.004;2023-02-14T03:10:42;103531.13;;;5.11;67.59
71384;BME280;67558;52.166;5.004;2023-02-14T03:16:07;103523.16;;;5.03;67.58
71384;BME280;67558;52.166;5.004;2023-02-14T03:27:34;103514.81;;;4.90;67.60
71384;BME280;67558;52.166;5.004;2023-02-14T03:32:48;103520.97;;;4.90;67.58
71384;BME280;67558;52.166;5.004;2023-02-14T03:35:31;103524.75;;;4.88;67.61
71384;BME280;67558;52.166;5.004;2023-02-14T03:38:23;103517.63;;;4.80;68.28
71384;BME280;67558;52.166;5.004;2023-02-14T03:40:55;103515.66;;;4.82;67.70
71384;BME280;67558;52.166;5.004;2023-02-14T03:43:43;103511.00;;;4.84;67.89
71384;BME280;67558;52.166;5.004;2023-02-14T03:46:17;103519.13;;;4.83;67.76
71384;BME280;67558;52.166;5.004;2023-02-14T03:48:44;103521.78;;;4.83;68.07
71384;BME280;67558;52.166;5.004;2023-02-14T03:51:12;103519.28;;;4.81;67.82
71384;BME280;67558;52.166;5.004;2023-02-14T03:53:42;103509.00;;;4.78;67.90
71384;BME280;67558;52.166;5.004;2023-02-14T03:56:17;103502.88;;;4.78;67.94
71384;BME280;67558;52.166;5.004;2023-02-14T03:58:49;103507.03;;;4.80;67.64
71384;BME280;67558;52.166;5.004;2023-02-14T04:01:23;103505.19;;;4.81;67.93
71384;BME280;67558;52.166;5.004;2023-02-14T04:03:49;103507.69;;;4.82;67.93
71384;BME280;67558;52.166;5.004;2023-02-14T04:06:18;103507.03;;;4.80;67.80
71384;BME280;67558;52.166;5.004;2023-02-14T04:08:44;103516.94;;;4.78;68.10
71384;BME280;67558;52.166;5.004;2023-02-14T04:11:10;103507.13;;;4.70;67.83
71384;BME280;67558;52.166;5.004;2023-02-14T04:13:37;103516.75;;;4.71;67.81
71384;BME280;67558;52.166;5.004;2023-02-14T04:16:03;103518.25;;;4.74;68.09
71384;BME280;67558;52.166;5.004;2023-02-14T04:18:28;103516.75;;;4.71;67.92
71384;BME280;67558;52.166;5.004;2023-02-14T04:21:12;103516.59;;;4.73;68.00
71384;BME280;67558;52.166;5.004;2023-02-14T04:23:38;103516.44;;;4.75;67.97
71384;BME280;67558;52.166;5.004;2023-02-14T04:26:03;103515.59;;;4.74;68.04
71384;BME280;67558;52.166;5.004;2023-02-14T04:28:29;103512.63;;;4.77;68.13
71384;BME280;67558;52.166;5.004;2023-02-14T04:30:55;103509.97;;;4.77;68.12
71384;BME280;67558;52.166;5.004;2023-02-14T04:33:21;103511.97;;;4.83;68.16
71384;BME280;67558;52.166;5.004;2023-02-14T04:35:49;103498.38;;;4.78;68.34
71384;BME280;67558;52.166;5.004;2023-02-14T04:38:14;103499.41;;;4.85;68.24
71384;BME280;67558;52.166;5.004;2023-02-14T04:40:40;103509.03;;;4.86;68.18
71384;BME280;67558;52.166;5.004;2023-02-14T04:43:05;103511.19;;;4.91;68.46
71384;BME280;67558;52.166;5.004;2023-02-14T04:45:32;103500.59;;;4.91;68.45
71384;BME280;67558;52.166;5.004;2023-02-14T04:47:57;103497.59;;;4.94;68.80
71384;BME280;67558;52.166;5.004;2023-02-14T04:50:23;103492.81;;;4.98;68.63
71384;BME280;67558;52.166;5.004;2023-02-14T04:52:50;103495.63;;;5.04;68.85
71384;BME280;67558;52.166;5.004;2023-02-14T04:55:15;103499.78;;;5.07;68.78
71384;BME280;67558;52.166;5.004;2023-02-14T04:57:41;103491.00;;;5.06;68.96
71384;BME280;67558;52.166;5.004;2023-02-14T05:00:06;103496.81;;;5.10;68.70
71384;BME280;67558;52.166;5.004;2023-02-14T05:02:32;103491.84;;;5.15;68.77
71384;BME280;67558;52.166;5.004;2023-02-14T05:04:58;103494.16;;;5.18;68.68
71384;BME280;67558;52.166;5.004;2023-02-14T05:07:23;103501.00;;;5.21;68.69
71384;BME280;67558;52.166;5.004;2023-02-14T05:09:48;103496.50;;;5.21;68.99
71384;BME280;67558;52.166;5.004;2023-02-14T05:12:14;103487.22;;;5.17;69.09
71384;BME280;67558;52.166;5.004;2023-02-14T05:14:40;103488.84;;;5.18;69.04
71384;BME280;67558;52.166;5.004;2023-02-14T05:17:05;103497.81;;;5.17;69.16
71384;BME280;67558;52.166;5.004;2023-02-14T05:19:31;103495.66;;;5.12;68.93
71384;BME280;67558;52.166;5.004;2023-02-14T05:21:56;103491.53;;;5.10;69.31
71384;BME280;67558;52.166;5.004;2023-02-14T05:24:21;103496.50;;;5.13;69.19
71384;BME280;67558;52.166;5.004;2023-02-14T05:26:47;103495.47;;;5.14;69.03
71384;BME280;67558;52.166;5.004;2023-02-14T05:29:12;103494.84;;;5.12;69.16
71384;BME280;67558;52.166;5.004;2023-02-14T05:31:37;103486.22;;;5.10;69.52
71384;BME280;67558;52.166;5.004;2023-02-14T05:34:03;103502.31;;;5.17;69.17
71384;BME280;67558;52.166;5.004;2023-02-14T05:36:28;103500.63;;;5.16;69.45
71384;BME280;67558;52.166;5.004;2023-02-14T05:38:54;103498.50;;;5.19;69.27
71384;BME280;67558;52.166;5.004;2023-02-14T05:41:19;103497.34;;;5.22;69.66
71384;BME280;67558;52.166;5.004;2023-02-14T05:43:44;103497.84;;;5.25;69.72
71384;BME280;67558;52.166;5.004;2023-02-14T05:46:10;103496.00;;;5.26;69.48
71384;BME280;67558;52.166;5.004;2023-02-14T05:48:35;103500.97;;;5.29;69.67
71384;BME280;67558;52.166;5.004;2023-02-14T05:51:05;103501.84;;;5.29;69.63
71384;BME280;67558;52.166;5.004;2023-02-14T05:53:31;103500.97;;;5.29;69.43
71384;BME280;67558;52.166;5.004;2023-02-14T05:55:56;103499.00;;;5.31;69.40
71384;BME280;67558;52.166;5.004;2023-02-14T05:58:21;103496.69;;;5.28;69.46
71384;BME280;67558;52.166;5.004;2023-02-14T06:00:47;103496.00;;;5.26;69.24
71384;BME280;67558;52.166;5.004;2023-02-14T06:03:12;103484.22;;;5.20;69.47
71384;BME280;67558;52.166;5.004;2023-02-14T06:05:37;103495.69;;;5.21;69.66
71384;BME280;67558;52.166;5.004;2023-02-14T06:08:03;103494.16;;;5.18;69.61
71384;BME280;67558;52.166;5.004;2023-02-14T06:10:29;103486.53;;;5.15;69.77
71384;BME280;67558;52.166;5.004;2023-02-14T06:12:54;103491.69;;;5.17;69.83
71384;BME280;67558;52.166;5.004;2023-02-14T06:15:20;103473.94;;;5.09;69.98
71384;BME280;67558;52.166;5.004;2023-02-14T06:17:51;103488.38;;;5.15;70.14
71384;BME280;67558;52.166;5.004;2023-02-14T06:20:17;103486.88;;;5.12;70.06
71384;BME280;67558;52.166;5.004;2023-02-14T06:22:42;103496.16;;;5.16;70.17
71384;BME280;67558;52.166;5.004;2023-02-14T06:25:07;103495.31;;;5.16;70.26
71384;BME280;67558;52.166;5.004;2023-02-14T06:27:33;103499.00;;;5.15;70.36
71384;BME280;67558;52.166;5.004;2023-02-14T06:29:58;103499.00;;;5.15;70.28
71384;BME280;67558;52.166;5.004;2023-02-14T06:32:24;103499.81;;;5.15;70.27
71384;BME280;67558;52.166;5.004;2023-02-14T06:34:49;103509.09;;;5.11;70.31
71384;BME280;67558;52.166;5.004;2023-02-14T06:37:15;103502.97;;;5.10;70.53
71384;BME280;67558;52.166;5.004;2023-02-14T06:39:40;103502.44;;;5.07;70.13
71384;BME280;67558;52.166;5.004;2023-02-14T06:42:05;103507.25;;;5.11;70.31
71384;BME280;67558;52.166;5.004;2023-02-14T06:44:31;103504.59;;;5.11;69.99
71384;BME280;67558;52.166;5.004;2023-02-14T06:46:56;103508.41;;;5.09;70.28
71384;BME280;67558;52.166;5.004;2023-02-14T06:49:22;103502.28;;;5.08;70.26
71384;BME280;67558;52.166;5.004;2023-02-14T06:51:48;103505.75;;;5.09;70.52
71384;BME280;67558;52.166;5.004;2023-02-14T06:54:14;103489.50;;;5.04;70.32
71384;BME280;67558;52.166;5.004;2023-02-14T06:56:39;103491.97;;;5.05;70.67
71384;BME280;67558;52.166;5.004;2023-02-14T06:59:05;103495.78;;;5.03;70.44
71384;BME280;67558;52.166;5.004;2023-02-14T07:01:30;103498.81;;;5.08;70.87
71384;BME280;67558;52.166;5.004;2023-02-14T07:03:55;103488.84;;;5.02;70.62
71384;BME280;67558;52.166;5.004;2023-02-14T07:06:21;103493.00;;;5.04;70.44
71384;BME280;67558;52.166;5.004;2023-02-14T07:08:46;103483.53;;;5.02;70.72
71384;BME280;67558;52.166;5.004;2023-02-14T07:11:12;103482.38;;;5.04;70.68
71384;BME280;67558;52.166;5.004;2023-02-14T07:13:37;103483.53;;;5.02;70.82
71384;BME280;67558;52.166;5.004;2023-02-14T07:16:02;103489.19;;;5.07;70.86
71384;BME280;67558;52.166;5.004;2023-02-14T07:18:28;103491.81;;;5.07;71.10
71384;BME280;67558;52.166;5.004;2023-02-14T07:20:53;103491.00;;;5.06;70.76
71384;BME280;67558;52.166;5.004;2023-02-14T07:23:19;103492.50;;;5.09;70.88
71384;BME280;67558;52.166;5.004;2023-02-14T07:25:44;103486.53;;;5.07;70.83
71384;BME280;67558;52.166;5.004;2023-02-14T07:28:10;103497.50;;;5.12;71.15
71384;BME280;67558;52.166;5.004;2023-02-14T07:30:35;103495.47;;;5.14;70.95
71384;BME280;67558;52.166;5.004;2023-02-14T07:33:01;103482.38;;;5.04;70.79
71384;BME280;67558;52.166;5.004;2023-02-14T07:35:26;103501.97;;;5.20;71.01
71384;BME280;67558;52.166;5.004;2023-02-14T07:37:52;103508.63;;;5.24;71.06
71384;BME280;67558;52.166;5.004;2023-02-14T07:40:18;103501.81;;;5.21;71.02
71384;BME280;67558;52.166;5.004;2023-02-14T07:42:50;103511.59;;;5.29;71.19
71384;BME280;67558;52.166;5.004;2023-02-14T07:45:16;103501.31;;;5.26;71.06
71384;BME280;67558;52.166;5.004;2023-02-14T07:47:41;103512.78;;;5.34;70.69
71384;BME280;67558;52.166;5.004;2023-02-14T07:50:08;103510.94;;;5.35;71.16
71384;BME280;67558;52.166;5.004;2023-02-14T07:52:33;103513.09;;;5.40;70.97
71384;BME280;67558;52.166;5.004;2023-02-14T07:54:58;103513.63;;;5.43;71.18
71384;BME280;67558;52.166;5.004;2023-02-14T07:57:24;103501.34;;;5.42;71.12
71384;BME280;67558;52.166;5.004;2023-02-14T07:59:49;103514.59;;;5.50;70.83
71384;BME280;67558;52.166;5.004;2023-02-14T08:02:14;103501.53;;;5.49;71.21
71384;BME280;67558;52.166;5.004;2023-02-14T08:04:40;103505.16;;;5.56;70.85
71384;BME280;67558;52.166;5.004;2023-02-14T08:07:05;103505.00;;;5.58;71.36
71384;BME280;67558;52.166;5.004;2023-02-14T08:09:30;103505.03;;;5.66;71.10
71384;BME280;67558;52.166;5.004;2023-02-14T08:11:57;103507.84;;;5.72;71.16
71384;BME280;67558;52.166;5.004;2023-02-14T08:14:42;103505.34;;;5.79;71.35
71384;BME280;67558;52.166;5.004;2023-02-14T08:17:07;103505.16;;;5.81;71.04
71384;BME280;67558;52.166;5.004;2023-02-14T08:19:34;103505.81;;;5.91;71.28
71384;BME280;67558;52.166;5.004;2023-02-14T08:22:00;103491.53;;;5.92;71.16
71384;BME280;67558;52.166;5.004;2023-02-14T08:24:25;103514.31;;;6.11;71.44
71384;BME280;67558;52.166;5.004;2023-02-14T08:26:51;103515.44;;;6.25;71.52
71384;BME280;67558;52.166;5.004;2023-02-14T08:29:16;103517.06;;;6.34;71.66
71384;BME280;67558;52.166;5.004;2023-02-14T08:31:42;103523.50;;;6.48;71.69
71384;BME280;67558;52.166;5.004;2023-02-14T08:34:07;103518.63;;;6.60;71.61
71384;BME280;67558;52.166;5.004;2023-02-14T08:36:33;103507.63;;;6.71;71.47
71384;BME280;67558;52.166;5.004;2023-02-14T08:38:59;103519.88;;;6.88;71.96
71384;BME280;67558;52.166;5.004;2023-02-14T08:41:25;103515.63;;;7.02;71.48
71384;BME280;67558;52.166;5.004;2023-02-14T08:43:50;103506.78;;;7.10;71.27
71384;BME280;67558;52.166;5.004;2023-02-14T08:46:16;103513.00;;;7.25;70.89
71384;BME280;67558;52.166;5.004;2023-02-14T08:48:42;103507.25;;;7.36;70.63
71384;BME280;67558;52.166;5.004;2023-02-14T08:51:09;103517.97;;;7.51;70.84
71384;BME280;67558;52.166;5.004;2023-02-14T08:53:37;103511.38;;;7.62;70.39
71384;BME280;67558;52.166;5.004;2023-02-14T08:56:07;103504.16;;;7.71;70.41
71384;BME280;67558;52.166;5.004;2023-02-14T08:58:33;103509.41;;;7.79;70.17
71384;BME280;67558;52.166;5.004;2023-02-14T09:01:00;103505.66;;;7.88;70.24
71384;BME280;67558;52.166;5.004;2023-02-14T09:03:26;103507.44;;;7.96;70.05
71384;BME280;67558;52.166;5.004;2023-02-14T09:05:51;103506.88;;;8.00;70.30
71384;BME280;67558;52.166;5.004;2023-02-14T09:08:16;103506.16;;;8.07;70.26
71384;BME280;67558;52.166;5.004;2023-02-14T09:10:42;103500.63;;;8.08;70.02
71384;BME280;67558;52.166;5.004;2023-02-14T09:13:07;103499.25;;;8.12;70.00
71384;BME280;67558;52.166;5.004;2023-02-14T09:15:33;103498.53;;;8.18;69.83
71384;BME280;67558;52.166;5.004;2023-02-14T09:17:58;103492.47;;;8.25;69.74
71384;BME280;67558;52.166;5.004;2023-02-14T09:20:24;103492.72;;;8.30;69.80
71384;BME280;67558;52.166;5.004;2023-02-14T09:22:49;103496.50;;;8.35;69.54
71384;BME280;67558;52.166;5.004;2023-02-14T09:25:15;103496.50;;;8.35;69.64
71384;BME280;67558;52.166;5.004;2023-02-14T09:27:41;103488.06;;;8.47;69.77
71384;BME280;67558;52.166;5.004;2023-02-14T09:30:07;103483.38;;;8.49;69.70
71384;BME280;67558;52.166;5.004;2023-02-14T09:32:33;103489.19;;;8.52;69.70
71384;BME280;67558;52.166;5.004;2023-02-14T09:35:00;103480.13;;;8.53;69.58
71384;BME280;67558;52.166;5.004;2023-02-14T09:37:45;103485.75;;;8.58;69.60
71384;BME280;67558;52.166;5.004;2023-02-14T09:40:28;103488.50;;;8.65;69.47
71384;BME280;67558;52.166;5.004;2023-02-14T09:43:04;103486.50;;;8.67;69.41
71384;BME280;67558;52.166;5.004;2023-02-14T09:45:34;103479.31;;;8.68;69.47
71384;BME280;67558;52.166;5.004;2023-02-14T09:48:39;103487.56;;;8.73;69.39
71384;BME280;67558;52.166;5.004;2023-02-14T09:51:13;103484.97;;;8.79;69.26
71384;BME280;67558;52.166;5.004;2023-02-14T09:53:46;103472.09;;;8.83;68.95
71384;BME280;67558;52.166;5.004;2023-02-14T10:01:46;103480.16;;;8.90;68.91
71384;BME280;67558;52.166;5.004;2023-02-14T10:07:10;103481.25;;;8.95;68.64
71384;BME280;67558;52.166;5.004;2023-02-14T10:09:51;103489.53;;;9.00;68.46
71384;BME280;67558;52.166;5.004;2023-02-14T10:12:29;103484.00;;;9.02;68.32
71384;BME280;67558;52.166;5.004;2023-02-14T10:14:58;103477.63;;;9.03;68.27
71384;BME280;67558;52.166;5.004;2023-02-14T10:20:10;103485.72;;;9.10;68.44
71384;BME280;67558;52.166;5.004;2023-02-14T10:22:48;103477.97;;;9.15;68.41
71384;BME280;67558;52.166;5.004;2023-02-14T10:25:16;103474.09;;;9.17;68.18
71384;BME280;67558;52.166;5.004;2023-02-14T10:27:46;103474.34;;;9.22;68.21
71384;BME280;67558;52.166;5.004;2023-02-14T10:30:14;103468.81;;;9.24;67.88
71384;BME280;67558;52.166;5.004;2023-02-14T10:32:49;103469.91;;;9.30;67.90
71384;BME280;67558;52.166;5.004;2023-02-14T10:44:07;103462.44;;;9.47;67.37
71384;BME280;67558;52.166;5.004;2023-02-14T10:52:11;103460.88;;;9.59;67.10
71384;BME280;67558;52.166;5.004;2023-02-14T10:54:42;103438.25;;;9.55;66.99
71384;BME280;67558;52.166;5.004;2023-02-14T10:57:15;103464.44;;;9.66;66.86
71384;BME280;67558;52.166;5.004;2023-02-14T11:02:13;103459.78;;;9.75;66.52
71384;BME280;67558;52.166;5.004;2023-02-14T11:04:40;103459.38;;;9.78;66.40
71384;BME280;67558;52.166;5.004;2023-02-14T11:07:13;103459.00;;;9.81;65.94
71384;BME280;67558;52.166;5.004;2023-02-14T11:09:39;103450.41;;;9.86;66.05
71384;BME280;67558;52.166;5.004;2023-02-14T11:12:04;103460.94;;;9.94;65.67
71384;BME280;67558;52.166;5.004;2023-02-14T11:14:32;103455.00;;;9.98;65.37
71384;BME280;67558;52.166;5.004;2023-02-14T11:16:59;103458.72;;;10.04;65.21
71384;BME280;67558;52.166;5.004;2023-02-14T11:19:33;103453.81;;;10.08;65.09
71384;BME280;67558;52.166;5.004;2023-02-14T11:22:00;103442.09;;;10.09;65.10
71384;BME280;67558;52.166;5.004;2023-02-14T11:24:39;103452.22;;;10.13;64.96
71384;BME280;67558;52.166;5.004;2023-02-14T11:29:40;103445.03;;;10.20;64.98
71384;BME280;67558;52.166;5.004;2023-02-14T11:32:13;103446.31;;;10.24;64.66
71384;BME280;67558;52.166;5.004;2023-02-14T11:34:59;103438.91;;;10.27;64.69
71384;BME280;67558;52.166;5.004;2023-02-14T11:37:48;103442.88;;;10.31;64.34
71384;BME280;67558;52.166;5.004;2023-02-14T11:40:31;103439.16;;;10.32;64.60
71384;BME280;67558;52.166;5.004;2023-02-14T11:42:59;103437.72;;;10.36;64.12
71384;BME280;67558;52.166;5.004;2023-02-14T11:48:26;103424.38;;;10.42;64.07
71384;BME280;67558;52.166;5.004;2023-02-14T11:51:04;103410.19;;;10.42;63.80
71384;BME280;67558;52.166;5.004;2023-02-14T11:53:48;103421.72;;;10.49;63.73
71384;BME280;67558;52.166;5.004;2023-02-14T11:56:19;103407.13;;;10.52;63.79
71384;BME280;67558;52.166;5.004;2023-02-14T11:59:02;103405.91;;;10.54;63.86
71384;BME280;67558;52.166;5.004;2023-02-14T12:01:34;103396.66;;;10.57;63.38
71384;BME280;67558;52.166;5.004;2023-02-14T12:04:03;103395.84;;;10.63;63.17
71384;BME280;67558;52.166;5.004;2023-02-14T12:06:31;103381.22;;;10.65;63.14
71384;BME280;67558;52.166;5.004;2023-02-14T12:11:53;103368.47;;;10.68;62.98
71384;BME280;67558;52.166;5.004;2023-02-14T12:14:21;103380.00;;;10.75;63.08
71384;BME280;67558;52.166;5.004;2023-02-14T12:19:41;103364.38;;;10.78;62.80
71384;BME280;67558;52.166;5.004;2023-02-14T12:22:12;103364.56;;;10.83;62.38
71384;BME280;67558;52.166;5.004;2023-02-14T12:25:09;103355.28;;;10.86;62.48
71384;BME280;67558;52.166;5.004;2023-02-14T12:30:20;103348.72;;;10.95;62.43
71384;BME280;67558;52.166;5.004;2023-02-14T12:32:49;103351.19;;;10.97;62.44
71384;BME280;67558;52.166;5.004;2023-02-14T12:35:17;103342.75;;;11.00;62.41
71384;BME280;67558;52.166;5.004;2023-02-14T12:41:03;103343.56;;;11.07;62.03
71384;BME280;67558;52.166;5.004;2023-02-14T12:52:14;103335.50;;;11.20;61.25
71384;BME280;67558;52.166;5.004;2023-02-14T13:00:31;103317.34;;;11.29;61.13
71384;BME280;67558;52.166;5.004;2023-02-14T13:05:48;103299.03;;;11.33;60.52
71384;BME280;67558;52.166;5.004;2023-02-14T13:17:08;103293.84;;;11.51;59.46
71384;BME280;67558;52.166;5.004;2023-02-14T13:22:20;103287.03;;;11.55;59.04
71384;BME280;67558;52.166;5.004;2023-02-14T13:24:49;103284.53;;;11.60;58.62
71384;BME280;67558;52.166;5.004;2023-02-14T13:27:25;103282.66;;;11.61;58.64
71384;BME280;67558;52.166;5.004;2023-02-14T13:29:58;103288.63;;;11.63;58.60
71384;BME280;67558;52.166;5.004;2023-02-14T13:32:29;103278.50;;;11.65;58.32
71384;BME280;67558;52.166;5.004;2023-02-14T13:34:57;103273.97;;;11.65;58.35
71384;BME280;67558;52.166;5.004;2023-02-14T13:37:24;103269.22;;;11.67;58.10
71384;BME280;67558;52.166;5.004;2023-02-14T13:39:54;103267.75;;;11.72;58.13
71384;BME280;67558;52.166;5.004;2023-02-14T13:48:09;103255.97;;;11.79;58.38
71384;BME280;67558;52.166;5.004;2023-02-14T13:51:01;103260.28;;;11.80;57.95
71384;BME280;67558;52.166;5.004;2023-02-14T13:53:40;103254.53;;;11.83;57.49
71384;BME280;67558;52.166;5.004;2023-02-14T13:58:55;103253.28;;;11.86;57.72
71384;BME280;67558;52.166;5.004;2023-02-14T14:03:54;103256.59;;;11.88;57.95
71384;BME280;67558;52.166;5.004;2023-02-14T14:06:20;103254.31;;;11.92;57.97
71384;BME280;67558;52.166;5.004;2023-02-14T14:08:48;103248.25;;;12.03;57.67
71384;BME280;67558;52.166;5.004;2023-02-14T14:18:49;103246.44;;;11.97;58.00
71384;BME280;67558;52.166;5.004;2023-02-14T14:21:39;103235.72;;;11.97;58.04
71384;BME280;67558;52.166;5.004;2023-02-14T14:24:20;103233.63;;;11.99;58.06
71384;BME280;67558;52.166;5.004;2023-02-14T14:27:40;103230.94;;;11.99;57.96
71384;BME280;67558;52.166;5.004;2023-02-14T14:30:14;103229.09;;;11.99;58.11
71384;BME280;67558;52.166;5.004;2023-02-14T14:32:42;103233.19;;;12.02;58.04
71384;BME280;67558;52.166;5.004;2023-02-14T14:37:49;103238.34;;;12.03;57.54
71384;BME280;67558;52.166;5.004;2023-02-14T14:42:50;103239.16;;;12.04;57.93
71384;BME280;67558;52.166;5.004;2023-02-14T14:45:25;103235.06;;;12.01;57.92
71384;BME280;67558;52.166;5.004;2023-02-14T14:47:52;103241.03;;;12.03;57.64
71384;BME280;67558;52.166;5.004;2023-02-14T14:50:22;103229.53;;;11.96;57.63
71384;BME280;67558;52.166;5.004;2023-02-14T14:52:50;103243.50;;;12.05;57.63
71384;BME280;67558;52.166;5.004;2023-02-14T14:55:29;103233.78;;;12.04;57.31
71384;BME280;67558;52.166;5.004;2023-02-14T14:57:57;103239.16;;;12.04;57.65
71384;BME280;67558;52.166;5.004;2023-02-14T15:00:34;103227.81;;;12.02;57.82
71384;BME280;67558;52.166;5.004;2023-02-14T15:05:36;103230.91;;;12.05;57.43
71384;BME280;67558;52.166;5.004;2023-02-14T15:08:27;103230.09;;;12.05;57.54
71384;BME280;67558;52.166;5.004;2023-02-14T15:11:26;103221.66;;;12.01;57.64
71384;BME280;67558;52.166;5.004;2023-02-14T15:14:19;103224.31;;;12.01;57.42
71384;BME280;67558;52.166;5.004;2023-02-14T15:16:48;103234.03;;;12.02;57.54
71384;BME280;67558;52.166;5.004;2023-02-14T15:19:24;103227.00;;;12.01;57.51
71384;BME280;67558;52.166;5.004;2023-02-14T15:21:55;103222.69;;;12.00;57.57
71384;BME280;67558;52.166;5.004;2023-02-14T15:24:21;103212.19;;;11.99;57.61
71384;BME280;67558;52.166;5.004;2023-02-14T15:26:47;103223.09;;;11.97;57.71
71384;BME280;67558;52.166;5.004;2023-02-14T15:29:28;103218.78;;;11.96;57.89